Airfield :
LOGIN :

Register | Disclaimer

   EN    FR    IT 

 










Legend :    VFR   Marginal VFR   IFR   Intensive IFR   Very Intensive IFR
Visi :
Ceiling :
>= 8 km
>= 3000ft
5 to 8 km
1000 to 3000 ft
1500m to 5 km
500 to 1000 ft
800 to 1500m
200 to 500 ft
< 800m
< 200 ft
Symbols :   Thunderstorms  Fog  Heavy snow  Heavy precipitations  Wind > 20 kt
SIGMETs :     Misc.  Thunderstorms  Icing  Turbulence  Mountain Waves  Volcanic Ashes






- Airport Elevation : 74 ft
- IATA code : NDZ


ETMN - Cuxhaven Nordholz Sea AB

CURRENT METAR :
  • 130520Z 13013G23KT 9999 FEW060 BKN240 01/M02 Q0980 BLU+BLU+

EXPIRED METARs :
  • 130420Z 14013KT 9999 BKN240 01/M01 Q0980 BLU+
  • 130320Z 14013G23KT 9999 FEW060 SCT280 01/M01 Q0981 BLU+

TAF TAF ETMN
Valid from the 13 at 06:00 until the 13 at 15:00 UTC


130502Z 1306/1315 13012KT 9999 NSW SCT050 BKN240
BECMG 1310/1312 11010KT 8000 NSW BKN010 BKN100
PROB30 1313/1315 12012KT 6000 RASN SCT002 BKN006



MET'MAP, your aeronautical weather chart ! - Copyright ORBIFLY December 2007 - Disclaimer

ORBIFLY MET'MAP TEAM :

Programming & Development : Alexandra Zaïnal
Concept & original design : Baudouin d'Aumeries
Assistance for programming : Marc-Olivier Méhu
Technical & hardware support : Manuel Goepfert

Contact : metmap@orbifly.com




SOURCES & CREDITS :

   NOAA